sensor_id;sensor_type;location;lat;lon;timestamp;P1;durP1;ratioP1;P2;durP2;ratioP2
19341;SDS011;9807;48.258;12.690;2023-09-12T00:02:18;7.93;;;7.13;;
19341;SDS011;9807;48.258;12.690;2023-09-12T00:04:44;8.67;;;7.77;;
19341;SDS011;9807;48.258;12.690;2023-09-12T00:07:10;8.10;;;7.27;;
19341;SDS011;9807;48.258;12.690;2023-09-12T00:09:35;10.60;;;7.63;;
19341;SDS011;9807;48.258;12.690;2023-09-12T00:12:01;9.33;;;8.07;;
19341;SDS011;9807;48.258;12.690;2023-09-12T00:14:27;8.53;;;7.63;;
19341;SDS011;9807;48.258;12.690;2023-09-12T00:16:53;8.03;;;7.23;;
19341;SDS011;9807;48.258;12.690;2023-09-12T00:19:20;8.20;;;7.43;;
19341;SDS011;9807;48.258;12.690;2023-09-12T00:21:49;8.00;;;7.20;;
19341;SDS011;9807;48.258;12.690;2023-09-12T00:24:15;8.37;;;7.57;;
19341;SDS011;9807;48.258;12.690;2023-09-12T00:26:41;8.50;;;7.37;;
19341;SDS011;9807;48.258;12.690;2023-09-12T00:29:06;8.17;;;7.37;;
19341;SDS011;9807;48.258;12.690;2023-09-12T00:31:32;8.40;;;7.60;;
19341;SDS011;9807;48.258;12.690;2023-09-12T00:33:57;8.10;;;7.07;;
19341;SDS011;9807;48.258;12.690;2023-09-12T00:36:23;9.50;;;8.50;;
19341;SDS011;9807;48.258;12.690;2023-09-12T00:38:50;7.47;;;6.77;;
19341;SDS011;9807;48.258;12.690;2023-09-12T00:41:16;7.87;;;7.10;;
19341;SDS011;9807;48.258;12.690;2023-09-12T00:43:41;8.73;;;7.83;;
19341;SDS011;9807;48.258;12.690;2023-09-12T00:46:07;8.43;;;7.63;;
19341;SDS011;9807;48.258;12.690;2023-09-12T00:48:33;8.13;;;7.33;;
19341;SDS011;9807;48.258;12.690;2023-09-12T00:51:00;7.87;;;7.07;;
19341;SDS011;9807;48.258;12.690;2023-09-12T00:53:26;8.10;;;7.37;;
19341;SDS011;9807;48.258;12.690;2023-09-12T00:55:54;9.27;;;7.93;;
19341;SDS011;9807;48.258;12.690;2023-09-12T00:58:23;9.63;;;7.57;;
19341;SDS011;9807;48.258;12.690;2023-09-12T01:00:51;8.63;;;7.73;;
19341;SDS011;9807;48.258;12.690;2023-09-12T01:03:17;9.17;;;7.50;;
19341;SDS011;9807;48.258;12.690;2023-09-12T01:05:43;8.07;;;7.27;;
19341;SDS011;9807;48.258;12.690;2023-09-12T01:08:09;7.63;;;6.93;;
19341;SDS011;9807;48.258;12.690;2023-09-12T01:10:35;8.67;;;7.80;;
19341;SDS011;9807;48.258;12.690;2023-09-12T01:13:01;10.47;;;8.10;;
19341;SDS011;9807;48.258;12.690;2023-09-12T01:15:27;8.27;;;7.47;;
19341;SDS011;9807;48.258;12.690;2023-09-12T01:17:52;8.70;;;7.77;;
19341;SDS011;9807;48.258;12.690;2023-09-12T01:20:26;9.43;;;8.23;;
19341;SDS011;9807;48.258;12.690;2023-09-12T01:28:33;8.93;;;8.03;;
19341;SDS011;9807;48.258;12.690;2023-09-12T01:31:01;9.30;;;8.40;;
19341;SDS011;9807;48.258;12.690;2023-09-12T01:33:28;8.73;;;7.90;;
19341;SDS011;9807;48.258;12.690;2023-09-12T01:35:54;9.17;;;8.17;;
19341;SDS011;9807;48.258;12.690;2023-09-12T01:38:20;10.87;;;7.77;;
19341;SDS011;9807;48.258;12.690;2023-09-12T01:40:51;8.73;;;7.83;;
19341;SDS011;9807;48.258;12.690;2023-09-12T01:43:19;8.50;;;7.70;;
19341;SDS011;9807;48.258;12.690;2023-09-12T01:45:48;8.33;;;7.53;;
19341;SDS011;9807;48.258;12.690;2023-09-12T01:48:19;8.93;;;7.30;;
19341;SDS011;9807;48.258;12.690;2023-09-12T01:50:46;8.33;;;7.53;;
19341;SDS011;9807;48.258;12.690;2023-09-12T01:53:13;9.43;;;7.20;;
19341;SDS011;9807;48.258;12.690;2023-09-12T01:55:40;8.23;;;7.47;;
19341;SDS011;9807;48.258;12.690;2023-09-12T01:58:08;8.17;;;7.37;;
19341;SDS011;9807;48.258;12.690;2023-09-12T02:00:34;8.63;;;7.50;;
19341;SDS011;9807;48.258;12.690;2023-09-12T02:03:01;8.83;;;7.73;;
19341;SDS011;9807;48.258;12.690;2023-09-12T02:05:28;8.90;;;8.00;;
19341;SDS011;9807;48.258;12.690;2023-09-12T02:07:54;8.00;;;7.20;;
19341;SDS011;9807;48.258;12.690;2023-09-12T02:10:20;9.20;;;7.37;;
19341;SDS011;9807;48.258;12.690;2023-09-12T02:12:46;7.43;;;6.73;;
19341;SDS011;9807;48.258;12.690;2023-09-12T02:15:12;8.17;;;7.37;;
19341;SDS011;9807;48.258;12.690;2023-09-12T02:17:40;8.47;;;7.60;;
19341;SDS011;9807;48.258;12.690;2023-09-12T02:20:07;7.80;;;7.00;;
19341;SDS011;9807;48.258;12.690;2023-09-12T02:22:33;8.07;;;7.27;;
19341;SDS011;9807;48.258;12.690;2023-09-12T02:24:59;7.77;;;7.07;;
19341;SDS011;9807;48.258;12.690;2023-09-12T02:27:25;9.80;;;7.57;;
19341;SDS011;9807;48.258;12.690;2023-09-12T02:29:53;9.20;;;8.23;;
19341;SDS011;9807;48.258;12.690;2023-09-12T02:32:18;9.83;;;8.77;;
19341;SDS011;9807;48.258;12.690;2023-09-12T02:34:44;8.33;;;7.53;;
19341;SDS011;9807;48.258;12.690;2023-09-12T02:37:10;9.23;;;8.20;;
19341;SDS011;9807;48.258;12.690;2023-09-12T02:39:36;10.47;;;8.03;;
19341;SDS011;9807;48.258;12.690;2023-09-12T02:42:01;8.80;;;7.90;;
19341;SDS011;9807;48.258;12.690;2023-09-12T02:44:27;8.80;;;7.90;;
19341;SDS011;9807;48.258;12.690;2023-09-12T02:46:53;8.13;;;7.33;;
19341;SDS011;9807;48.258;12.690;2023-09-12T02:49:19;8.47;;;7.53;;
19341;SDS011;9807;48.258;12.690;2023-09-12T02:51:45;8.43;;;7.47;;
19341;SDS011;9807;48.258;12.690;2023-09-12T02:54:11;8.73;;;7.83;;
19341;SDS011;9807;48.258;12.690;2023-09-12T02:56:36;7.93;;;7.17;;
19341;SDS011;9807;48.258;12.690;2023-09-12T02:59:02;8.20;;;7.40;;
19341;SDS011;9807;48.258;12.690;2023-09-12T03:01:27;7.90;;;7.10;;
19341;SDS011;9807;48.258;12.690;2023-09-12T03:03:54;8.47;;;7.43;;
19341;SDS011;9807;48.258;12.690;2023-09-12T03:06:20;8.03;;;7.23;;
19341;SDS011;9807;48.258;12.690;2023-09-12T03:08:49;8.87;;;7.40;;
19341;SDS011;9807;48.258;12.690;2023-09-12T03:11:15;8.83;;;7.93;;
19341;SDS011;9807;48.258;12.690;2023-09-12T03:13:41;8.63;;;7.60;;
19341;SDS011;9807;48.258;12.690;2023-09-12T03:16:10;8.93;;;7.37;;
19341;SDS011;9807;48.258;12.690;2023-09-12T03:18:37;11.27;;;8.47;;
19341;SDS011;9807;48.258;12.690;2023-09-12T03:21:04;13.10;;;8.97;;
19341;SDS011;9807;48.258;12.690;2023-09-12T03:23:30;10.30;;;8.67;;
19341;SDS011;9807;48.258;12.690;2023-09-12T03:26:01;10.70;;;7.27;;
19341;SDS011;9807;48.258;12.690;2023-09-12T03:28:28;8.47;;;7.40;;
19341;SDS011;9807;48.258;12.690;2023-09-12T03:30:57;8.00;;;7.20;;
19341;SDS011;9807;48.258;12.690;2023-09-12T03:33:32;9.97;;;8.07;;
19341;SDS011;9807;48.258;12.690;2023-09-12T03:35:58;9.07;;;7.73;;
19341;SDS011;9807;48.258;12.690;2023-09-12T03:38:24;8.10;;;7.40;;
19341;SDS011;9807;48.258;12.690;2023-09-12T03:40:51;9.43;;;7.10;;
19341;SDS011;9807;48.258;12.690;2023-09-12T03:43:17;8.87;;;7.70;;
19341;SDS011;9807;48.258;12.690;2023-09-12T03:45:42;7.50;;;6.73;;
19341;SDS011;9807;48.258;12.690;2023-09-12T03:48:08;7.30;;;6.60;;
19341;SDS011;9807;48.258;12.690;2023-09-12T03:50:34;10.00;;;7.57;;
19341;SDS011;9807;48.258;12.690;2023-09-12T03:52:59;10.00;;;8.90;;
19341;SDS011;9807;48.258;12.690;2023-09-12T03:55:25;8.77;;;7.93;;
19341;SDS011;9807;48.258;12.690;2023-09-12T03:57:52;8.60;;;7.80;;
19341;SDS011;9807;48.258;12.690;2023-09-12T04:00:18;9.83;;;7.57;;
19341;SDS011;9807;48.258;12.690;2023-09-12T04:02:43;8.80;;;7.73;;
19341;SDS011;9807;48.258;12.690;2023-09-12T04:05:09;8.23;;;7.43;;
19341;SDS011;9807;48.258;12.690;2023-09-12T04:07:35;9.20;;;7.90;;
19341;SDS011;9807;48.258;12.690;2023-09-12T04:10:01;8.93;;;8.00;;
19341;SDS011;9807;48.258;12.690;2023-09-12T04:12:26;8.53;;;7.50;;
19341;SDS011;9807;48.258;12.690;2023-09-12T04:14:52;8.10;;;7.30;;
19341;SDS011;9807;48.258;12.690;2023-09-12T04:17:18;8.20;;;7.40;;
19341;SDS011;9807;48.258;12.690;2023-09-12T04:19:44;8.13;;;7.30;;
19341;SDS011;9807;48.258;12.690;2023-09-12T04:22:10;8.10;;;7.20;;
19341;SDS011;9807;48.258;12.690;2023-09-12T04:24:36;8.00;;;7.20;;
19341;SDS011;9807;48.258;12.690;2023-09-12T04:27:02;9.20;;;7.70;;
19341;SDS011;9807;48.258;12.690;2023-09-12T04:29:28;7.63;;;6.93;;
19341;SDS011;9807;48.258;12.690;2023-09-12T04:31:54;8.20;;;7.50;;
19341;SDS011;9807;48.258;12.690;2023-09-12T04:34:25;8.20;;;7.33;;
19341;SDS011;9807;48.258;12.690;2023-09-12T04:36:52;8.70;;;7.67;;
19341;SDS011;9807;48.258;12.690;2023-09-12T04:39:18;8.13;;;7.33;;
19341;SDS011;9807;48.258;12.690;2023-09-12T04:41:44;15.13;;;10.07;;
19341;SDS011;9807;48.258;12.690;2023-09-12T04:44:10;9.23;;;8.33;;
19341;SDS011;9807;48.258;12.690;2023-09-12T04:46:36;9.03;;;7.67;;
19341;SDS011;9807;48.258;12.690;2023-09-12T04:49:02;9.93;;;8.33;;
19341;SDS011;9807;48.258;12.690;2023-09-12T04:51:28;9.13;;;8.23;;
19341;SDS011;9807;48.258;12.690;2023-09-12T04:53:54;12.43;;;8.97;;
19341;SDS011;9807;48.258;12.690;2023-09-12T04:56:20;10.63;;;9.17;;
19341;SDS011;9807;48.258;12.690;2023-09-12T04:58:49;9.97;;;8.97;;
19341;SDS011;9807;48.258;12.690;2023-09-12T05:01:19;11.60;;;9.03;;
19341;SDS011;9807;48.258;12.690;2023-09-12T05:03:44;12.27;;;9.10;;
19341;SDS011;9807;48.258;12.690;2023-09-12T05:06:11;13.10;;;8.80;;
19341;SDS011;9807;48.258;12.690;2023-09-12T05:08:38;15.20;;;9.07;;
19341;SDS011;9807;48.258;12.690;2023-09-12T05:11:03;16.13;;;9.17;;
19341;SDS011;9807;48.258;12.690;2023-09-12T05:13:29;16.03;;;8.53;;
19341;SDS011;9807;48.258;12.690;2023-09-12T05:15:55;12.33;;;10.70;;
19341;SDS011;9807;48.258;12.690;2023-09-12T05:18:24;9.00;;;8.10;;
19341;SDS011;9807;48.258;12.690;2023-09-12T05:20:52;11.17;;;9.40;;
19341;SDS011;9807;48.258;12.690;2023-09-12T05:23:18;12.23;;;9.50;;
19341;SDS011;9807;48.258;12.690;2023-09-12T05:25:43;11.87;;;8.73;;
19341;SDS011;9807;48.258;12.690;2023-09-12T05:28:10;12.80;;;7.47;;
19341;SDS011;9807;48.258;12.690;2023-09-12T05:30:36;9.53;;;8.00;;
19341;SDS011;9807;48.258;12.690;2023-09-12T05:33:02;8.30;;;7.50;;
19341;SDS011;9807;48.258;12.690;2023-09-12T05:35:28;8.97;;;8.07;;
19341;SDS011;9807;48.258;12.690;2023-09-12T05:37:56;8.87;;;7.97;;
19341;SDS011;9807;48.258;12.690;2023-09-12T05:40:22;8.30;;;7.27;;
19341;SDS011;9807;48.258;12.690;2023-09-12T05:42:48;8.53;;;7.00;;
19341;SDS011;9807;48.258;12.690;2023-09-12T05:45:13;8.40;;;7.60;;
19341;SDS011;9807;48.258;12.690;2023-09-12T05:47:39;9.03;;;7.30;;
19341;SDS011;9807;48.258;12.690;2023-09-12T05:50:06;7.30;;;6.60;;
19341;SDS011;9807;48.258;12.690;2023-09-12T05:52:32;7.57;;;6.87;;
19341;SDS011;9807;48.258;12.690;2023-09-12T05:54:58;8.17;;;7.00;;
19341;SDS011;9807;48.258;12.690;2023-09-12T05:57:29;7.43;;;6.73;;
19341;SDS011;9807;48.258;12.690;2023-09-12T06:00:00;7.53;;;6.80;;
19341;SDS011;9807;48.258;12.690;2023-09-12T06:02:26;7.90;;;7.10;;
19341;SDS011;9807;48.258;12.690;2023-09-12T06:04:52;8.20;;;7.40;;
19341;SDS011;9807;48.258;12.690;2023-09-12T06:07:18;8.73;;;7.83;;
19341;SDS011;9807;48.258;12.690;2023-09-12T06:09:44;9.40;;;7.70;;
19341;SDS011;9807;48.258;12.690;2023-09-12T06:12:13;8.73;;;7.83;;
19341;SDS011;9807;48.258;12.690;2023-09-12T06:14:38;7.50;;;6.70;;
19341;SDS011;9807;48.258;12.690;2023-09-12T06:17:04;13.53;;;10.33;;
19341;SDS011;9807;48.258;12.690;2023-09-12T06:19:30;11.57;;;9.13;;
19341;SDS011;9807;48.258;12.690;2023-09-12T06:21:56;10.27;;;8.50;;
19341;SDS011;9807;48.258;12.690;2023-09-12T06:24:23;10.57;;;8.10;;
19341;SDS011;9807;48.258;12.690;2023-09-12T06:26:49;11.53;;;9.27;;
19341;SDS011;9807;48.258;12.690;2023-09-12T06:29:15;7.97;;;6.50;;
19341;SDS011;9807;48.258;12.690;2023-09-12T06:31:41;12.63;;;8.33;;
19341;SDS011;9807;48.258;12.690;2023-09-12T06:34:07;10.40;;;9.00;;
19341;SDS011;9807;48.258;12.690;2023-09-12T06:36:34;10.93;;;7.43;;
19341;SDS011;9807;48.258;12.690;2023-09-12T06:39:00;8.90;;;7.97;;
19341;SDS011;9807;48.258;12.690;2023-09-12T06:41:26;14.50;;;8.57;;
19341;SDS011;9807;48.258;12.690;2023-09-12T06:43:52;19.03;;;10.87;;
19341;SDS011;9807;48.258;12.690;2023-09-12T06:46:18;14.30;;;10.43;;
19341;SDS011;9807;48.258;12.690;2023-09-12T06:48:44;19.60;;;11.47;;
19341;SDS011;9807;48.258;12.690;2023-09-12T06:51:10;14.97;;;9.90;;
19341;SDS011;9807;48.258;12.690;2023-09-12T06:53:37;11.23;;;8.50;;
19341;SDS011;9807;48.258;12.690;2023-09-12T06:56:05;9.23;;;8.27;;
19341;SDS011;9807;48.258;12.690;2023-09-12T06:58:31;19.20;;;11.90;;
19341;SDS011;9807;48.258;12.690;2023-09-12T07:01:06;21.03;;;12.40;;
19341;SDS011;9807;48.258;12.690;2023-09-12T07:03:35;9.93;;;8.93;;
19341;SDS011;9807;48.258;12.690;2023-09-12T07:06:02;21.30;;;11.67;;
19341;SDS011;9807;48.258;12.690;2023-09-12T07:08:29;8.70;;;7.80;;
19341;SDS011;9807;48.258;12.690;2023-09-12T07:10:55;13.87;;;9.60;;
19341;SDS011;9807;48.258;12.690;2023-09-12T07:13:22;22.70;;;15.20;;
19341;SDS011;9807;48.258;12.690;2023-09-12T07:15:49;18.60;;;13.20;;
19341;SDS011;9807;48.258;12.690;2023-09-12T07:18:16;12.67;;;10.27;;
19341;SDS011;9807;48.258;12.690;2023-09-12T07:20:43;10.77;;;8.10;;
19341;SDS011;9807;48.258;12.690;2023-09-12T07:23:10;11.83;;;10.30;;
19341;SDS011;9807;48.258;12.690;2023-09-12T07:25:39;17.37;;;14.30;;
19341;SDS011;9807;48.258;12.690;2023-09-12T07:28:07;13.20;;;10.80;;
19341;SDS011;9807;48.258;12.690;2023-09-12T07:30:34;13.90;;;8.60;;
19341;SDS011;9807;48.258;12.690;2023-09-12T07:33:00;15.43;;;10.90;;
19341;SDS011;9807;48.258;12.690;2023-09-12T07:35:28;20.90;;;12.20;;
19341;SDS011;9807;48.258;12.690;2023-09-12T07:37:55;19.53;;;13.73;;
19341;SDS011;9807;48.258;12.690;2023-09-12T07:40:21;12.67;;;11.30;;
19341;SDS011;9807;48.258;12.690;2023-09-12T07:42:47;14.27;;;8.87;;
19341;SDS011;9807;48.258;12.690;2023-09-12T07:45:12;20.50;;;13.33;;
19341;SDS011;9807;48.258;12.690;2023-09-12T07:47:38;24.87;;;12.87;;
19341;SDS011;9807;48.258;12.690;2023-09-12T07:50:04;18.30;;;12.73;;
19341;SDS011;9807;48.258;12.690;2023-09-12T07:52:31;20.80;;;14.47;;
19341;SDS011;9807;48.258;12.690;2023-09-12T07:55:01;18.80;;;12.07;;
19341;SDS011;9807;48.258;12.690;2023-09-12T07:57:28;16.00;;;12.20;;
19341;SDS011;9807;48.258;12.690;2023-09-12T07:59:54;13.83;;;12.23;;
19341;SDS011;9807;48.258;12.690;2023-09-12T08:02:23;15.20;;;11.10;;
19341;SDS011;9807;48.258;12.690;2023-09-12T08:04:53;20.13;;;15.20;;
19341;SDS011;9807;48.258;12.690;2023-09-12T08:07:19;21.57;;;15.07;;
19341;SDS011;9807;48.258;12.690;2023-09-12T08:09:52;12.60;;;10.27;;
19341;SDS011;9807;48.258;12.690;2023-09-12T08:12:20;11.70;;;9.40;;
19341;SDS011;9807;48.258;12.690;2023-09-12T08:14:47;14.23;;;10.23;;
19341;SDS011;9807;48.258;12.690;2023-09-12T08:17:13;16.27;;;13.47;;
19341;SDS011;9807;48.258;12.690;2023-09-12T08:19:40;10.10;;;9.20;;
19341;SDS011;9807;48.258;12.690;2023-09-12T08:22:06;12.10;;;9.17;;
19341;SDS011;9807;48.258;12.690;2023-09-12T08:24:33;17.03;;;11.90;;
19341;SDS011;9807;48.258;12.690;2023-09-12T08:27:00;18.73;;;15.10;;
19341;SDS011;9807;48.258;12.690;2023-09-12T08:29:29;19.40;;;15.97;;
19341;SDS011;9807;48.258;12.690;2023-09-12T08:31:56;15.27;;;13.57;;
19341;SDS011;9807;48.258;12.690;2023-09-12T08:34:22;14.97;;;13.47;;
19341;SDS011;9807;48.258;12.690;2023-09-12T08:36:47;16.87;;;14.57;;
19341;SDS011;9807;48.258;12.690;2023-09-12T08:39:14;16.13;;;14.00;;
19341;SDS011;9807;48.258;12.690;2023-09-12T08:41:41;16.47;;;14.70;;
19341;SDS011;9807;48.258;12.690;2023-09-12T08:44:08;12.57;;;11.37;;
19341;SDS011;9807;48.258;12.690;2023-09-12T08:46:34;14.43;;;11.70;;
19341;SDS011;9807;48.258;12.690;2023-09-12T08:49:02;23.10;;;15.03;;
19341;SDS011;9807;48.258;12.690;2023-09-12T08:51:31;16.10;;;14.20;;
19341;SDS011;9807;48.258;12.690;2023-09-12T08:53:57;17.13;;;13.20;;
19341;SDS011;9807;48.258;12.690;2023-09-12T08:56:23;24.67;;;15.00;;
19341;SDS011;9807;48.258;12.690;2023-09-12T08:58:50;13.07;;;11.07;;
19341;SDS011;9807;48.258;12.690;2023-09-12T09:01:18;21.43;;;14.97;;
19341;SDS011;9807;48.258;12.690;2023-09-12T09:03:45;19.93;;;13.80;;
19341;SDS011;9807;48.258;12.690;2023-09-12T09:06:12;17.53;;;14.63;;
19341;SDS011;9807;48.258;12.690;2023-09-12T09:08:39;20.77;;;11.77;;
19341;SDS011;9807;48.258;12.690;2023-09-12T09:11:07;23.17;;;14.30;;
19341;SDS011;9807;48.258;12.690;2023-09-12T09:13:32;18.80;;;13.27;;
19341;SDS011;9807;48.258;12.690;2023-09-12T09:16:17;15.97;;;11.83;;
19341;SDS011;9807;48.258;12.690;2023-09-12T09:19:04;25.80;;;14.90;;
19341;SDS011;9807;48.258;12.690;2023-09-12T09:21:36;12.80;;;11.37;;
19341;SDS011;9807;48.258;12.690;2023-09-12T09:24:07;15.90;;;12.10;;
19341;SDS011;9807;48.258;12.690;2023-09-12T09:26:45;15.80;;;11.80;;
19341;SDS011;9807;48.258;12.690;2023-09-12T09:29:19;13.60;;;11.90;;
19341;SDS011;9807;48.258;12.690;2023-09-12T09:31:49;16.90;;;12.53;;
19341;SDS011;9807;48.258;12.690;2023-09-12T09:34:16;14.63;;;11.97;;
19341;SDS011;9807;48.258;12.690;2023-09-12T09:36:43;14.87;;;11.67;;
19341;SDS011;9807;48.258;12.690;2023-09-12T09:39:12;15.90;;;10.80;;
19341;SDS011;9807;48.258;12.690;2023-09-12T09:41:41;13.83;;;11.90;;
19341;SDS011;9807;48.258;12.690;2023-09-12T09:44:07;13.13;;;11.73;;
19341;SDS011;9807;48.258;12.690;2023-09-12T09:46:36;17.93;;;12.67;;
19341;SDS011;9807;48.258;12.690;2023-09-12T09:49:02;13.90;;;12.17;;
19341;SDS011;9807;48.258;12.690;2023-09-12T09:51:29;14.47;;;11.93;;
19341;SDS011;9807;48.258;12.690;2023-09-12T09:53:57;13.90;;;12.40;;
19341;SDS011;9807;48.258;12.690;2023-09-12T09:56:23;13.77;;;11.87;;
19341;SDS011;9807;48.258;12.690;2023-09-12T09:58:55;17.47;;;13.47;;
19341;SDS011;9807;48.258;12.690;2023-09-12T10:04:43;16.67;;;12.10;;
19341;SDS011;9807;48.258;12.690;2023-09-12T10:07:09;15.30;;;11.40;;
19341;SDS011;9807;48.258;12.690;2023-09-12T10:09:36;15.37;;;11.60;;
19341;SDS011;9807;48.258;12.690;2023-09-12T10:12:05;13.90;;;11.30;;
19341;SDS011;9807;48.258;12.690;2023-09-12T10:14:31;14.50;;;11.87;;
19341;SDS011;9807;48.258;12.690;2023-09-12T10:17:04;14.30;;;11.00;;
19341;SDS011;9807;48.258;12.690;2023-09-12T10:19:42;15.13;;;12.10;;
19341;SDS011;9807;48.258;12.690;2023-09-12T10:22:28;15.37;;;11.73;;
19341;SDS011;9807;48.258;12.690;2023-09-12T10:24:59;14.77;;;11.33;;
19341;SDS011;9807;48.258;12.690;2023-09-12T10:27:26;13.87;;;11.40;;
19341;SDS011;9807;48.258;12.690;2023-09-12T10:29:52;15.60;;;11.33;;
19341;SDS011;9807;48.258;12.690;2023-09-12T10:32:18;12.13;;;10.80;;
19341;SDS011;9807;48.258;12.690;2023-09-12T10:34:46;13.00;;;11.57;;
19341;SDS011;9807;48.258;12.690;2023-09-12T10:37:16;17.07;;;12.57;;
19341;SDS011;9807;48.258;12.690;2023-09-12T10:39:52;16.13;;;12.27;;
19341;SDS011;9807;48.258;12.690;2023-09-12T10:42:19;15.03;;;11.40;;
19341;SDS011;9807;48.258;12.690;2023-09-12T10:44:46;12.30;;;11.00;;
19341;SDS011;9807;48.258;12.690;2023-09-12T10:47:12;13.97;;;10.80;;
19341;SDS011;9807;48.258;12.690;2023-09-12T10:49:42;12.90;;;11.57;;
19341;SDS011;9807;48.258;12.690;2023-09-12T10:52:08;16.93;;;11.43;;
19341;SDS011;9807;48.258;12.690;2023-09-12T10:54:38;13.37;;;10.77;;
19341;SDS011;9807;48.258;12.690;2023-09-12T10:57:09;14.13;;;11.47;;
19341;SDS011;9807;48.258;12.690;2023-09-12T11:02:35;13.13;;;10.70;;
19341;SDS011;9807;48.258;12.690;2023-09-12T11:07:59;11.80;;;10.63;;
19341;SDS011;9807;48.258;12.690;2023-09-12T11:10:26;11.23;;;10.13;;
19341;SDS011;9807;48.258;12.690;2023-09-12T11:12:54;11.97;;;10.67;;
19341;SDS011;9807;48.258;12.690;2023-09-12T11:15:23;12.43;;;10.43;;
19341;SDS011;9807;48.258;12.690;2023-09-12T11:18:06;13.27;;;10.40;;
19341;SDS011;9807;48.258;12.690;2023-09-12T11:23:18;12.50;;;9.50;;
19341;SDS011;9807;48.258;12.690;2023-09-12T11:25:44;13.60;;;7.87;;
19341;SDS011;9807;48.258;12.690;2023-09-12T11:28:09;13.20;;;8.63;;
19341;SDS011;9807;48.258;12.690;2023-09-12T11:30:37;10.20;;;8.93;;
19341;SDS011;9807;48.258;12.690;2023-09-12T11:33:21;11.10;;;8.90;;
19341;SDS011;9807;48.258;12.690;2023-09-12T11:35:54;13.03;;;8.90;;
19341;SDS011;9807;48.258;12.690;2023-09-12T11:38:28;10.70;;;8.47;;
19341;SDS011;9807;48.258;12.690;2023-09-12T11:40:56;10.47;;;8.90;;
19341;SDS011;9807;48.258;12.690;2023-09-12T11:43:23;12.60;;;8.63;;
19341;SDS011;9807;48.258;12.690;2023-09-12T11:45:51;9.30;;;8.40;;
19341;SDS011;9807;48.258;12.690;2023-09-12T11:48:19;9.23;;;8.30;;
19341;SDS011;9807;48.258;12.690;2023-09-12T11:50:52;9.23;;;8.37;;
19341;SDS011;9807;48.258;12.690;2023-09-12T11:53:20;9.33;;;8.07;;
19341;SDS011;9807;48.258;12.690;2023-09-12T11:55:58;9.20;;;7.17;;
19341;SDS011;9807;48.258;12.690;2023-09-12T11:58:25;7.80;;;7.10;;
19341;SDS011;9807;48.258;12.690;2023-09-12T12:01:01;12.53;;;7.40;;
19341;SDS011;9807;48.258;12.690;2023-09-12T12:03:28;8.73;;;6.90;;
19341;SDS011;9807;48.258;12.690;2023-09-12T12:05:55;13.43;;;8.23;;
19341;SDS011;9807;48.258;12.690;2023-09-12T12:08:21;8.33;;;7.53;;
19341;SDS011;9807;48.258;12.690;2023-09-12T12:10:50;8.37;;;7.47;;
19341;SDS011;9807;48.258;12.690;2023-09-12T12:13:20;8.77;;;7.50;;
19341;SDS011;9807;48.258;12.690;2023-09-12T12:15:46;9.83;;;7.23;;
19341;SDS011;9807;48.258;12.690;2023-09-12T12:18:13;10.57;;;7.77;;
19341;SDS011;9807;48.258;12.690;2023-09-12T12:20:39;8.90;;;7.70;;
19341;SDS011;9807;48.258;12.690;2023-09-12T12:23:04;14.37;;;7.53;;
19341;SDS011;9807;48.258;12.690;2023-09-12T12:25:34;18.23;;;8.13;;
19341;SDS011;9807;48.258;12.690;2023-09-12T12:28:00;10.97;;;7.47;;
19341;SDS011;9807;48.258;12.690;2023-09-12T12:30:30;10.40;;;7.40;;
19341;SDS011;9807;48.258;12.690;2023-09-12T12:32:59;9.37;;;7.63;;
19341;SDS011;9807;48.258;12.690;2023-09-12T12:35:26;9.83;;;7.30;;
19341;SDS011;9807;48.258;12.690;2023-09-12T12:37:53;12.73;;;8.00;;
19341;SDS011;9807;48.258;12.690;2023-09-12T12:40:27;9.50;;;7.50;;
19341;SDS011;9807;48.258;12.690;2023-09-12T12:42:53;8.40;;;7.30;;
19341;SDS011;9807;48.258;12.690;2023-09-12T12:45:19;9.10;;;7.63;;
19341;SDS011;9807;48.258;12.690;2023-09-12T12:47:56;8.40;;;7.57;;
19341;SDS011;9807;48.258;12.690;2023-09-12T12:50:35;9.20;;;7.23;;
19341;SDS011;9807;48.258;12.690;2023-09-12T12:53:04;13.37;;;7.50;;
19341;SDS011;9807;48.258;12.690;2023-09-12T12:55:29;15.83;;;7.50;;
19341;SDS011;9807;48.258;12.690;2023-09-12T12:57:55;8.43;;;7.43;;
19341;SDS011;9807;48.258;12.690;2023-09-12T13:00:21;8.03;;;7.23;;
19341;SDS011;9807;48.258;12.690;2023-09-12T13:02:48;8.80;;;7.43;;
19341;SDS011;9807;48.258;12.690;2023-09-12T13:05:27;7.77;;;6.97;;
19341;SDS011;9807;48.258;12.690;2023-09-12T13:07:57;8.77;;;7.57;;
19341;SDS011;9807;48.258;12.690;2023-09-12T13:10:23;8.67;;;7.13;;
19341;SDS011;9807;48.258;12.690;2023-09-12T13:12:49;9.87;;;7.10;;
19341;SDS011;9807;48.258;12.690;2023-09-12T13:15:15;8.90;;;7.30;;
19341;SDS011;9807;48.258;12.690;2023-09-12T13:17:45;7.57;;;6.70;;
19341;SDS011;9807;48.258;12.690;2023-09-12T13:20:14;12.57;;;7.10;;
19341;SDS011;9807;48.258;12.690;2023-09-12T13:22:40;8.00;;;7.20;;
19341;SDS011;9807;48.258;12.690;2023-09-12T13:25:08;9.17;;;7.30;;
19341;SDS011;9807;48.258;12.690;2023-09-12T13:27:35;10.30;;;7.10;;
19341;SDS011;9807;48.258;12.690;2023-09-12T13:30:01;7.90;;;7.10;;
19341;SDS011;9807;48.258;12.690;2023-09-12T13:32:30;8.10;;;7.03;;
19341;SDS011;9807;48.258;12.690;2023-09-12T13:34:58;8.13;;;7.33;;
19341;SDS011;9807;48.258;12.690;2023-09-12T13:37:23;8.07;;;7.03;;
19341;SDS011;9807;48.258;12.690;2023-09-12T13:39:55;15.13;;;7.50;;
19341;SDS011;9807;48.258;12.690;2023-09-12T13:42:21;8.63;;;7.17;;
19341;SDS011;9807;48.258;12.690;2023-09-12T13:44:55;9.40;;;7.80;;
19341;SDS011;9807;48.258;12.690;2023-09-12T13:47:21;7.77;;;6.97;;
19341;SDS011;9807;48.258;12.690;2023-09-12T13:49:57;8.63;;;7.37;;
19341;SDS011;9807;48.258;12.690;2023-09-12T13:52:28;11.57;;;7.60;;
19341;SDS011;9807;48.258;12.690;2023-09-12T13:54:54;13.90;;;8.20;;
19341;SDS011;9807;48.258;12.690;2023-09-12T13:57:19;8.20;;;7.47;;
19341;SDS011;9807;48.258;12.690;2023-09-12T13:59:45;11.60;;;8.10;;
19341;SDS011;9807;48.258;12.690;2023-09-12T14:02:11;8.70;;;7.67;;
19341;SDS011;9807;48.258;12.690;2023-09-12T14:04:37;9.27;;;7.63;;
19341;SDS011;9807;48.258;12.690;2023-09-12T14:07:05;8.17;;;7.40;;
19341;SDS011;9807;48.258;12.690;2023-09-12T14:09:31;10.13;;;7.80;;
19341;SDS011;9807;48.258;12.690;2023-09-12T14:11:56;8.73;;;7.77;;
19341;SDS011;9807;48.258;12.690;2023-09-12T14:14:22;9.00;;;8.10;;
19341;SDS011;9807;48.258;12.690;2023-09-12T14:16:48;7.70;;;6.97;;
19341;SDS011;9807;48.258;12.690;2023-09-12T14:19:21;9.17;;;7.20;;
19341;SDS011;9807;48.258;12.690;2023-09-12T14:21:46;9.83;;;7.60;;
19341;SDS011;9807;48.258;12.690;2023-09-12T14:24:12;10.33;;;7.73;;
19341;SDS011;9807;48.258;12.690;2023-09-12T14:26:38;11.03;;;7.87;;
19341;SDS011;9807;48.258;12.690;2023-09-12T14:29:04;8.77;;;7.50;;
19341;SDS011;9807;48.258;12.690;2023-09-12T14:31:32;8.47;;;7.37;;
19341;SDS011;9807;48.258;12.690;2023-09-12T14:33:58;10.40;;;8.13;;
19341;SDS011;9807;48.258;12.690;2023-09-12T14:36:25;11.67;;;8.20;;
19341;SDS011;9807;48.258;12.690;2023-09-12T14:38:51;9.77;;;7.50;;
19341;SDS011;9807;48.258;12.690;2023-09-12T14:41:17;10.83;;;7.90;;
19341;SDS011;9807;48.258;12.690;2023-09-12T14:43:42;12.73;;;8.13;;
19341;SDS011;9807;48.258;12.690;2023-09-12T14:46:08;8.50;;;7.67;;
19341;SDS011;9807;48.258;12.690;2023-09-12T14:48:35;8.90;;;7.93;;
19341;SDS011;9807;48.258;12.690;2023-09-12T14:51:01;10.10;;;7.43;;
19341;SDS011;9807;48.258;12.690;2023-09-12T14:53:27;14.03;;;8.40;;
19341;SDS011;9807;48.258;12.690;2023-09-12T14:55:53;8.97;;;8.07;;
19341;SDS011;9807;48.258;12.690;2023-09-12T14:58:19;12.00;;;8.50;;